sensor_id;sensor_type;location;lat;lon;timestamp;P1;durP1;ratioP1;P2;durP2;ratioP2
7527;SDS011;3805;49.006;8.514;2022-08-21T00:00:52;4.57;;;3.50;;
7527;SDS011;3805;49.006;8.514;2022-08-21T00:03:41;3.30;;;3.00;;
7527;SDS011;3805;49.006;8.514;2022-08-21T00:06:29;4.00;;;3.23;;
7527;SDS011;3805;49.006;8.514;2022-08-21T00:09:19;4.20;;;3.43;;
7527;SDS011;3805;49.006;8.514;2022-08-21T00:12:09;3.13;;;2.93;;
7527;SDS011;3805;49.006;8.514;2022-08-21T00:14:58;4.07;;;3.30;;
7527;SDS011;3805;49.006;8.514;2022-08-21T00:17:47;6.03;;;3.20;;
7527;SDS011;3805;49.006;8.514;2022-08-21T00:20:35;5.10;;;3.60;;
7527;SDS011;3805;49.006;8.514;2022-08-21T00:23:24;4.00;;;3.27;;
7527;SDS011;3805;49.006;8.514;2022-08-21T00:26:13;6.90;;;3.07;;
7527;SDS011;3805;49.006;8.514;2022-08-21T00:29:03;6.87;;;3.53;;
7527;SDS011;3805;49.006;8.514;2022-08-21T00:31:52;4.33;;;3.10;;
7527;SDS011;3805;49.006;8.514;2022-08-21T00:34:40;4.90;;;2.87;;
7527;SDS011;3805;49.006;8.514;2022-08-21T00:37:29;3.50;;;3.20;;
7527;SDS011;3805;49.006;8.514;2022-08-21T00:40:22;3.07;;;2.87;;
7527;SDS011;3805;49.006;8.514;2022-08-21T00:43:14;3.63;;;3.33;;
7527;SDS011;3805;49.006;8.514;2022-08-21T00:46:05;3.53;;;3.23;;
7527;SDS011;3805;49.006;8.514;2022-08-21T00:48:54;4.93;;;3.50;;
7527;SDS011;3805;49.006;8.514;2022-08-21T00:51:47;3.07;;;2.80;;
7527;SDS011;3805;49.006;8.514;2022-08-21T00:54:39;4.30;;;3.50;;
7527;SDS011;3805;49.006;8.514;2022-08-21T00:57:34;3.37;;;3.10;;
7527;SDS011;3805;49.006;8.514;2022-08-21T01:00:28;3.40;;;3.10;;
7527;SDS011;3805;49.006;8.514;2022-08-21T01:03:20;5.20;;;3.73;;
7527;SDS011;3805;49.006;8.514;2022-08-21T01:06:10;4.33;;;3.17;;
7527;SDS011;3805;49.006;8.514;2022-08-21T01:08:58;4.23;;;3.70;;
7527;SDS011;3805;49.006;8.514;2022-08-21T01:11:47;3.90;;;3.10;;
7527;SDS011;3805;49.006;8.514;2022-08-21T01:14:36;3.77;;;3.43;;
7527;SDS011;3805;49.006;8.514;2022-08-21T01:17:24;3.80;;;3.40;;
7527;SDS011;3805;49.006;8.514;2022-08-21T01:20:16;4.40;;;3.70;;
7527;SDS011;3805;49.006;8.514;2022-08-21T01:23:06;5.83;;;3.70;;
7527;SDS011;3805;49.006;8.514;2022-08-21T01:25:55;3.93;;;3.60;;
7527;SDS011;3805;49.006;8.514;2022-08-21T01:28:44;5.90;;;4.20;;
7527;SDS011;3805;49.006;8.514;2022-08-21T01:31:34;4.33;;;3.93;;
7527;SDS011;3805;49.006;8.514;2022-08-21T01:34:24;4.30;;;3.30;;
7527;SDS011;3805;49.006;8.514;2022-08-21T01:37:12;4.23;;;3.53;;
7527;SDS011;3805;49.006;8.514;2022-08-21T01:40:05;4.77;;;3.40;;
7527;SDS011;3805;49.006;8.514;2022-08-21T01:42:55;4.90;;;3.37;;
7527;SDS011;3805;49.006;8.514;2022-08-21T01:45:44;6.33;;;3.47;;
7527;SDS011;3805;49.006;8.514;2022-08-21T01:48:32;9.10;;;4.30;;
7527;SDS011;3805;49.006;8.514;2022-08-21T01:51:21;4.60;;;3.87;;
7527;SDS011;3805;49.006;8.514;2022-08-21T01:54:09;4.93;;;3.70;;
7527;SDS011;3805;49.006;8.514;2022-08-21T01:57:00;9.20;;;4.37;;
7527;SDS011;3805;49.006;8.514;2022-08-21T01:59:49;7.13;;;4.27;;
7527;SDS011;3805;49.006;8.514;2022-08-21T02:02:37;5.70;;;3.73;;
7527;SDS011;3805;49.006;8.514;2022-08-21T02:05:27;5.10;;;4.20;;
7527;SDS011;3805;49.006;8.514;2022-08-21T02:08:15;4.60;;;4.20;;
7527;SDS011;3805;49.006;8.514;2022-08-21T02:11:04;4.93;;;3.70;;
7527;SDS011;3805;49.006;8.514;2022-08-21T02:13:54;5.13;;;4.20;;
7527;SDS011;3805;49.006;8.514;2022-08-21T02:16:43;4.20;;;3.83;;
7527;SDS011;3805;49.006;8.514;2022-08-21T02:19:35;5.70;;;3.93;;
7527;SDS011;3805;49.006;8.514;2022-08-21T02:22:26;4.77;;;4.27;;
7527;SDS011;3805;49.006;8.514;2022-08-21T02:25:15;4.37;;;3.97;;
7527;SDS011;3805;49.006;8.514;2022-08-21T02:28:05;4.67;;;3.73;;
7527;SDS011;3805;49.006;8.514;2022-08-21T02:30:56;4.53;;;4.10;;
7527;SDS011;3805;49.006;8.514;2022-08-21T02:33:45;4.10;;;3.70;;
7527;SDS011;3805;49.006;8.514;2022-08-21T02:36:33;5.20;;;4.70;;
7527;SDS011;3805;49.006;8.514;2022-08-21T02:39:22;4.37;;;3.97;;
7527;SDS011;3805;49.006;8.514;2022-08-21T02:42:13;3.60;;;3.30;;
7527;SDS011;3805;49.006;8.514;2022-08-21T02:45:02;6.70;;;4.37;;
7527;SDS011;3805;49.006;8.514;2022-08-21T02:47:53;6.70;;;4.53;;
7527;SDS011;3805;49.006;8.514;2022-08-21T02:50:43;9.53;;;4.20;;
7527;SDS011;3805;49.006;8.514;2022-08-21T02:53:33;8.50;;;4.20;;
7527;SDS011;3805;49.006;8.514;2022-08-21T02:56:22;3.87;;;3.57;;
7527;SDS011;3805;49.006;8.514;2022-08-21T02:59:16;6.70;;;4.33;;
7527;SDS011;3805;49.006;8.514;2022-08-21T03:02:05;4.67;;;3.63;;
7527;SDS011;3805;49.006;8.514;2022-08-21T03:04:55;5.40;;;4.13;;
7527;SDS011;3805;49.006;8.514;2022-08-21T03:07:44;4.50;;;4.10;;
7527;SDS011;3805;49.006;8.514;2022-08-21T03:10:34;5.23;;;4.67;;
7527;SDS011;3805;49.006;8.514;2022-08-21T03:13:22;4.20;;;3.80;;
7527;SDS011;3805;49.006;8.514;2022-08-21T03:16:11;5.63;;;4.50;;
7527;SDS011;3805;49.006;8.514;2022-08-21T03:18:59;4.20;;;3.90;;
7527;SDS011;3805;49.006;8.514;2022-08-21T03:21:49;5.17;;;4.37;;
7527;SDS011;3805;49.006;8.514;2022-08-21T03:24:38;5.80;;;4.40;;
7527;SDS011;3805;49.006;8.514;2022-08-21T03:27:30;4.00;;;3.70;;
7527;SDS011;3805;49.006;8.514;2022-08-21T03:30:20;7.33;;;4.40;;
7527;SDS011;3805;49.006;8.514;2022-08-21T03:33:09;6.23;;;4.10;;
7527;SDS011;3805;49.006;8.514;2022-08-21T03:36:02;4.53;;;4.13;;
7527;SDS011;3805;49.006;8.514;2022-08-21T03:38:54;5.30;;;4.30;;
7527;SDS011;3805;49.006;8.514;2022-08-21T03:41:43;7.50;;;4.90;;
7527;SDS011;3805;49.006;8.514;2022-08-21T03:44:32;4.70;;;4.13;;
7527;SDS011;3805;49.006;8.514;2022-08-21T03:47:21;4.33;;;3.93;;
7527;SDS011;3805;49.006;8.514;2022-08-21T03:50:10;4.73;;;3.80;;
7527;SDS011;3805;49.006;8.514;2022-08-21T03:52:58;5.63;;;4.00;;
7527;SDS011;3805;49.006;8.514;2022-08-21T03:55:49;4.60;;;4.20;;
7527;SDS011;3805;49.006;8.514;2022-08-21T03:58:39;5.17;;;4.40;;
7527;SDS011;3805;49.006;8.514;2022-08-21T04:01:28;5.20;;;4.37;;
7527;SDS011;3805;49.006;8.514;2022-08-21T04:04:17;5.40;;;4.80;;
7527;SDS011;3805;49.006;8.514;2022-08-21T04:07:06;5.20;;;4.37;;
7527;SDS011;3805;49.006;8.514;2022-08-21T04:09:55;6.23;;;4.20;;
7527;SDS011;3805;49.006;8.514;2022-08-21T04:12:44;5.07;;;4.57;;
7527;SDS011;3805;49.006;8.514;2022-08-21T04:15:33;4.43;;;4.00;;
7527;SDS011;3805;49.006;8.514;2022-08-21T04:18:22;5.30;;;4.57;;
7527;SDS011;3805;49.006;8.514;2022-08-21T04:21:11;5.33;;;3.87;;
7527;SDS011;3805;49.006;8.514;2022-08-21T04:24:00;8.43;;;5.23;;
7527;SDS011;3805;49.006;8.514;2022-08-21T04:26:48;4.70;;;4.23;;
7527;SDS011;3805;49.006;8.514;2022-08-21T04:29:38;4.97;;;4.57;;
7527;SDS011;3805;49.006;8.514;2022-08-21T04:32:27;6.57;;;4.60;;
7527;SDS011;3805;49.006;8.514;2022-08-21T04:35:16;4.63;;;4.23;;
7527;SDS011;3805;49.006;8.514;2022-08-21T04:38:07;5.23;;;4.67;;
7527;SDS011;3805;49.006;8.514;2022-08-21T04:40:56;5.97;;;4.73;;
7527;SDS011;3805;49.006;8.514;2022-08-21T04:43:44;4.60;;;3.93;;
7527;SDS011;3805;49.006;8.514;2022-08-21T04:46:34;5.03;;;4.63;;
7527;SDS011;3805;49.006;8.514;2022-08-21T04:49:23;7.60;;;5.47;;
7527;SDS011;3805;49.006;8.514;2022-08-21T04:52:12;11.03;;;4.97;;
7527;SDS011;3805;49.006;8.514;2022-08-21T04:55:02;6.87;;;4.80;;
7527;SDS011;3805;49.006;8.514;2022-08-21T04:57:51;4.97;;;4.47;;
7527;SDS011;3805;49.006;8.514;2022-08-21T05:00:40;5.30;;;4.70;;
7527;SDS011;3805;49.006;8.514;2022-08-21T05:03:32;5.30;;;4.40;;
7527;SDS011;3805;49.006;8.514;2022-08-21T05:06:21;5.10;;;4.60;;
7527;SDS011;3805;49.006;8.514;2022-08-21T05:09:11;5.67;;;4.83;;
7527;SDS011;3805;49.006;8.514;2022-08-21T05:12:01;7.97;;;5.23;;
7527;SDS011;3805;49.006;8.514;2022-08-21T05:14:51;6.70;;;5.13;;
7527;SDS011;3805;49.006;8.514;2022-08-21T05:17:39;5.67;;;5.07;;
7527;SDS011;3805;49.006;8.514;2022-08-21T05:20:29;6.60;;;4.60;;
7527;SDS011;3805;49.006;8.514;2022-08-21T05:23:18;4.47;;;4.10;;
7527;SDS011;3805;49.006;8.514;2022-08-21T05:26:07;5.20;;;4.70;;
7527;SDS011;3805;49.006;8.514;2022-08-21T05:29:04;8.33;;;5.27;;
7527;SDS011;3805;49.006;8.514;2022-08-21T05:31:59;8.57;;;4.47;;
7527;SDS011;3805;49.006;8.514;2022-08-21T05:34:47;5.20;;;4.60;;
7527;SDS011;3805;49.006;8.514;2022-08-21T05:37:37;5.43;;;4.50;;
7527;SDS011;3805;49.006;8.514;2022-08-21T05:40:26;5.17;;;4.67;;
7527;SDS011;3805;49.006;8.514;2022-08-21T05:43:16;7.00;;;5.40;;
7527;SDS011;3805;49.006;8.514;2022-08-21T05:46:05;5.97;;;5.13;;
7527;SDS011;3805;49.006;8.514;2022-08-21T05:48:54;5.40;;;4.97;;
7527;SDS011;3805;49.006;8.514;2022-08-21T05:51:42;4.23;;;3.80;;
7527;SDS011;3805;49.006;8.514;2022-08-21T05:54:32;7.20;;;6.13;;
7527;SDS011;3805;49.006;8.514;2022-08-21T05:57:21;5.43;;;4.60;;
7527;SDS011;3805;49.006;8.514;2022-08-21T06:00:10;5.13;;;3.80;;
7527;SDS011;3805;49.006;8.514;2022-08-21T06:03:00;5.10;;;4.53;;
7527;SDS011;3805;49.006;8.514;2022-08-21T06:05:48;5.00;;;4.50;;
7527;SDS011;3805;49.006;8.514;2022-08-21T06:08:37;6.07;;;5.07;;
7527;SDS011;3805;49.006;8.514;2022-08-21T06:11:27;6.17;;;4.50;;
7527;SDS011;3805;49.006;8.514;2022-08-21T06:14:16;4.90;;;4.20;;
7527;SDS011;3805;49.006;8.514;2022-08-21T06:17:05;5.83;;;5.23;;
7527;SDS011;3805;49.006;8.514;2022-08-21T06:19:54;5.37;;;4.63;;
7527;SDS011;3805;49.006;8.514;2022-08-21T06:22:43;5.47;;;4.40;;
7527;SDS011;3805;49.006;8.514;2022-08-21T06:25:31;5.30;;;4.20;;
7527;SDS011;3805;49.006;8.514;2022-08-21T06:28:22;4.57;;;4.17;;
7527;SDS011;3805;49.006;8.514;2022-08-21T06:31:11;6.07;;;4.67;;
7527;SDS011;3805;49.006;8.514;2022-08-21T06:34:01;4.57;;;4.10;;
7527;SDS011;3805;49.006;8.514;2022-08-21T06:36:50;4.50;;;4.10;;
7527;SDS011;3805;49.006;8.514;2022-08-21T06:39:42;4.73;;;4.33;;
7527;SDS011;3805;49.006;8.514;2022-08-21T06:42:31;6.80;;;4.20;;
7527;SDS011;3805;49.006;8.514;2022-08-21T06:45:22;5.93;;;4.53;;
7527;SDS011;3805;49.006;8.514;2022-08-21T06:48:10;6.00;;;4.67;;
7527;SDS011;3805;49.006;8.514;2022-08-21T06:51:05;6.57;;;3.83;;
7527;SDS011;3805;49.006;8.514;2022-08-21T06:53:53;5.90;;;4.00;;
7527;SDS011;3805;49.006;8.514;2022-08-21T06:56:45;4.23;;;3.83;;
7527;SDS011;3805;49.006;8.514;2022-08-21T06:59:34;3.93;;;3.63;;
7527;SDS011;3805;49.006;8.514;2022-08-21T07:02:24;7.60;;;4.03;;
7527;SDS011;3805;49.006;8.514;2022-08-21T07:05:12;3.97;;;3.67;;
7527;SDS011;3805;49.006;8.514;2022-08-21T07:08:04;4.30;;;3.90;;
7527;SDS011;3805;49.006;8.514;2022-08-21T07:10:53;8.57;;;4.10;;
7527;SDS011;3805;49.006;8.514;2022-08-21T07:13:43;3.63;;;3.33;;
7527;SDS011;3805;49.006;8.514;2022-08-21T07:16:31;4.73;;;3.63;;
7527;SDS011;3805;49.006;8.514;2022-08-21T07:19:21;7.97;;;4.17;;
7527;SDS011;3805;49.006;8.514;2022-08-21T07:22:10;7.90;;;5.00;;
7527;SDS011;3805;49.006;8.514;2022-08-21T07:24:59;3.70;;;3.40;;
7527;SDS011;3805;49.006;8.514;2022-08-21T07:27:48;4.20;;;3.40;;
7527;SDS011;3805;49.006;8.514;2022-08-21T07:30:36;3.90;;;3.37;;
7527;SDS011;3805;49.006;8.514;2022-08-21T07:33:26;5.63;;;3.60;;
7527;SDS011;3805;49.006;8.514;2022-08-21T07:36:17;3.57;;;2.77;;
7527;SDS011;3805;49.006;8.514;2022-08-21T07:39:05;4.00;;;3.17;;
7527;SDS011;3805;49.006;8.514;2022-08-21T07:41:55;6.03;;;3.40;;
7527;SDS011;3805;49.006;8.514;2022-08-21T07:44:43;3.50;;;3.10;;
7527;SDS011;3805;49.006;8.514;2022-08-21T07:47:35;5.13;;;3.10;;
7527;SDS011;3805;49.006;8.514;2022-08-21T07:50:29;8.40;;;3.33;;
7527;SDS011;3805;49.006;8.514;2022-08-21T07:53:19;4.20;;;3.40;;
7527;SDS011;3805;49.006;8.514;2022-08-21T07:56:07;3.70;;;3.27;;
7527;SDS011;3805;49.006;8.514;2022-08-21T07:58:58;5.57;;;3.40;;
7527;SDS011;3805;49.006;8.514;2022-08-21T08:01:46;5.67;;;3.10;;
7527;SDS011;3805;49.006;8.514;2022-08-21T08:04:35;4.57;;;3.30;;
7527;SDS011;3805;49.006;8.514;2022-08-21T08:07:36;7.67;;;3.40;;
7527;SDS011;3805;49.006;8.514;2022-08-21T08:10:26;3.93;;;3.23;;
7527;SDS011;3805;49.006;8.514;2022-08-21T08:13:15;4.03;;;3.27;;
7527;SDS011;3805;49.006;8.514;2022-08-21T08:16:04;4.53;;;2.90;;
7527;SDS011;3805;49.006;8.514;2022-08-21T08:18:53;4.40;;;3.50;;
7527;SDS011;3805;49.006;8.514;2022-08-21T08:21:42;4.00;;;2.90;;
7527;SDS011;3805;49.006;8.514;2022-08-21T08:24:31;4.27;;;3.80;;
7527;SDS011;3805;49.006;8.514;2022-08-21T08:27:21;5.90;;;3.73;;
7527;SDS011;3805;49.006;8.514;2022-08-21T08:30:11;3.50;;;2.93;;
7527;SDS011;3805;49.006;8.514;2022-08-21T08:33:01;8.60;;;4.00;;
7527;SDS011;3805;49.006;8.514;2022-08-21T08:35:50;6.83;;;3.43;;
7527;SDS011;3805;49.006;8.514;2022-08-21T08:38:39;6.60;;;3.27;;
7527;SDS011;3805;49.006;8.514;2022-08-21T08:41:30;6.10;;;3.83;;
7527;SDS011;3805;49.006;8.514;2022-08-21T08:44:20;4.70;;;3.37;;
7527;SDS011;3805;49.006;8.514;2022-08-21T08:47:10;4.73;;;3.40;;
7527;SDS011;3805;49.006;8.514;2022-08-21T08:50:04;6.17;;;4.00;;
7527;SDS011;3805;49.006;8.514;2022-08-21T08:52:57;11.17;;;3.53;;
7527;SDS011;3805;49.006;8.514;2022-08-21T08:55:50;5.60;;;3.70;;
7527;SDS011;3805;49.006;8.514;2022-08-21T08:58:41;5.90;;;4.00;;
7527;SDS011;3805;49.006;8.514;2022-08-21T09:01:32;3.40;;;3.10;;
7527;SDS011;3805;49.006;8.514;2022-08-21T09:04:25;6.23;;;4.20;;
7527;SDS011;3805;49.006;8.514;2022-08-21T09:07:16;7.33;;;3.80;;
7527;SDS011;3805;49.006;8.514;2022-08-21T09:10:12;5.63;;;3.90;;
7527;SDS011;3805;49.006;8.514;2022-08-21T09:13:05;5.50;;;3.63;;
7527;SDS011;3805;49.006;8.514;2022-08-21T09:16:01;6.10;;;3.93;;
7527;SDS011;3805;49.006;8.514;2022-08-21T09:18:59;9.27;;;4.70;;
7527;SDS011;3805;49.006;8.514;2022-08-21T09:21:53;10.70;;;4.13;;
7527;SDS011;3805;49.006;8.514;2022-08-21T09:24:49;5.87;;;3.50;;
7527;SDS011;3805;49.006;8.514;2022-08-21T09:27:44;6.13;;;3.57;;
7527;SDS011;3805;49.006;8.514;2022-08-21T09:30:33;7.33;;;3.77;;
7527;SDS011;3805;49.006;8.514;2022-08-21T09:33:21;3.40;;;3.10;;
7527;SDS011;3805;49.006;8.514;2022-08-21T09:36:14;10.17;;;4.47;;
7527;SDS011;3805;49.006;8.514;2022-08-21T09:39:12;6.00;;;4.07;;
7527;SDS011;3805;49.006;8.514;2022-08-21T09:42:09;7.63;;;3.23;;
7527;SDS011;3805;49.006;8.514;2022-08-21T09:45:08;10.43;;;4.03;;
7527;SDS011;3805;49.006;8.514;2022-08-21T09:48:07;7.50;;;4.23;;
7527;SDS011;3805;49.006;8.514;2022-08-21T09:51:05;6.50;;;3.90;;
7527;SDS011;3805;49.006;8.514;2022-08-21T09:53:56;11.00;;;4.10;;
7527;SDS011;3805;49.006;8.514;2022-08-21T09:56:59;14.37;;;4.10;;
7527;SDS011;3805;49.006;8.514;2022-08-21T10:00:08;5.50;;;3.70;;
7527;SDS011;3805;49.006;8.514;2022-08-21T10:03:09;4.53;;;3.77;;
7527;SDS011;3805;49.006;8.514;2022-08-21T10:06:04;6.20;;;3.47;;
7527;SDS011;3805;49.006;8.514;2022-08-21T10:09:04;6.83;;;3.60;;
7527;SDS011;3805;49.006;8.514;2022-08-21T10:11:58;9.77;;;4.03;;
7527;SDS011;3805;49.006;8.514;2022-08-21T10:14:58;3.80;;;3.40;;
7527;SDS011;3805;49.006;8.514;2022-08-21T10:17:57;7.77;;;3.80;;
7527;SDS011;3805;49.006;8.514;2022-08-21T10:20:52;7.30;;;4.00;;
7527;SDS011;3805;49.006;8.514;2022-08-21T10:24:00;6.60;;;3.80;;
7527;SDS011;3805;49.006;8.514;2022-08-21T10:26:55;3.73;;;3.43;;
7527;SDS011;3805;49.006;8.514;2022-08-21T10:29:49;4.40;;;3.40;;
7527;SDS011;3805;49.006;8.514;2022-08-21T10:32:43;5.97;;;3.30;;
7527;SDS011;3805;49.006;8.514;2022-08-21T10:35:50;4.57;;;3.77;;
7527;SDS011;3805;49.006;8.514;2022-08-21T10:42:16;4.67;;;3.53;;
7527;SDS011;3805;49.006;8.514;2022-08-21T10:45:15;6.10;;;3.43;;
7527;SDS011;3805;49.006;8.514;2022-08-21T10:48:13;6.40;;;3.40;;
7527;SDS011;3805;49.006;8.514;2022-08-21T10:51:09;3.87;;;2.80;;
7527;SDS011;3805;49.006;8.514;2022-08-21T10:54:02;4.23;;;3.70;;
7527;SDS011;3805;49.006;8.514;2022-08-21T10:56:55;6.77;;;3.70;;
7527;SDS011;3805;49.006;8.514;2022-08-21T10:59:51;3.47;;;3.10;;
7527;SDS011;3805;49.006;8.514;2022-08-21T11:02:45;7.20;;;3.20;;
7527;SDS011;3805;49.006;8.514;2022-08-21T11:05:38;3.10;;;2.40;;
7527;SDS011;3805;49.006;8.514;2022-08-21T11:08:37;4.30;;;3.03;;
7527;SDS011;3805;49.006;8.514;2022-08-21T11:11:31;6.30;;;2.80;;
7527;SDS011;3805;49.006;8.514;2022-08-21T11:14:24;3.03;;;2.73;;
7527;SDS011;3805;49.006;8.514;2022-08-21T11:17:18;3.13;;;2.83;;
7527;SDS011;3805;49.006;8.514;2022-08-21T11:20:22;4.33;;;3.00;;
7527;SDS011;3805;49.006;8.514;2022-08-21T11:23:18;5.57;;;2.40;;
7527;SDS011;3805;49.006;8.514;2022-08-21T11:26:10;3.90;;;3.07;;
7527;SDS011;3805;49.006;8.514;2022-08-21T11:29:04;5.10;;;3.30;;
7527;SDS011;3805;49.006;8.514;2022-08-21T11:32:11;3.70;;;2.50;;
7527;SDS011;3805;49.006;8.514;2022-08-21T11:35:13;6.27;;;2.93;;
7527;SDS011;3805;49.006;8.514;2022-08-21T11:41:20;9.40;;;2.90;;
7527;SDS011;3805;49.006;8.514;2022-08-21T11:44:15;2.90;;;2.60;;
7527;SDS011;3805;49.006;8.514;2022-08-21T11:47:10;4.70;;;2.73;;
7527;SDS011;3805;49.006;8.514;2022-08-21T11:50:07;9.40;;;3.10;;
7527;SDS011;3805;49.006;8.514;2022-08-21T11:53:23;5.00;;;2.90;;
7527;SDS011;3805;49.006;8.514;2022-08-21T11:56:14;3.23;;;2.93;;
7527;SDS011;3805;49.006;8.514;2022-08-21T11:59:06;4.00;;;3.50;;
7527;SDS011;3805;49.006;8.514;2022-08-21T12:01:57;4.07;;;3.70;;
7527;SDS011;3805;49.006;8.514;2022-08-21T12:04:47;4.60;;;3.00;;
7527;SDS011;3805;49.006;8.514;2022-08-21T12:07:39;4.90;;;3.10;;
7527;SDS011;3805;49.006;8.514;2022-08-21T12:10:33;6.90;;;2.97;;
7527;SDS011;3805;49.006;8.514;2022-08-21T12:13:25;3.07;;;2.87;;
7527;SDS011;3805;49.006;8.514;2022-08-21T12:16:29;7.50;;;2.60;;
7527;SDS011;3805;49.006;8.514;2022-08-21T12:19:29;3.60;;;3.30;;
7527;SDS011;3805;49.006;8.514;2022-08-21T12:22:19;3.50;;;3.20;;
7527;SDS011;3805;49.006;8.514;2022-08-21T12:25:11;3.67;;;2.80;;
7527;SDS011;3805;49.006;8.514;2022-08-21T12:28:08;5.20;;;3.00;;
7527;SDS011;3805;49.006;8.514;2022-08-21T12:30:58;4.73;;;2.80;;
7527;SDS011;3805;49.006;8.514;2022-08-21T12:33:50;5.00;;;3.10;;
7527;SDS011;3805;49.006;8.514;2022-08-21T12:36:42;3.90;;;2.90;;
7527;SDS011;3805;49.006;8.514;2022-08-21T12:39:33;3.33;;;2.87;;
7527;SDS011;3805;49.006;8.514;2022-08-21T12:42:29;3.90;;;2.67;;
7527;SDS011;3805;49.006;8.514;2022-08-21T12:45:20;4.90;;;3.20;;
7527;SDS011;3805;49.006;8.514;2022-08-21T12:48:12;4.47;;;3.47;;
7527;SDS011;3805;49.006;8.514;2022-08-21T12:51:07;3.23;;;2.93;;
7527;SDS011;3805;49.006;8.514;2022-08-21T12:53:58;3.93;;;3.60;;
7527;SDS011;3805;49.006;8.514;2022-08-21T12:56:55;4.10;;;3.80;;
7527;SDS011;3805;49.006;8.514;2022-08-21T12:59:46;4.23;;;3.00;;
7527;SDS011;3805;49.006;8.514;2022-08-21T13:02:42;7.87;;;2.77;;
7527;SDS011;3805;49.006;8.514;2022-08-21T13:05:33;2.87;;;2.43;;
7527;SDS011;3805;49.006;8.514;2022-08-21T13:08:22;4.23;;;2.70;;
7527;SDS011;3805;49.006;8.514;2022-08-21T13:11:15;2.97;;;2.77;;
7527;SDS011;3805;49.006;8.514;2022-08-21T13:14:21;5.10;;;3.07;;
7527;SDS011;3805;49.006;8.514;2022-08-21T13:17:16;3.33;;;2.90;;
7527;SDS011;3805;49.006;8.514;2022-08-21T13:20:18;2.87;;;2.67;;
7527;SDS011;3805;49.006;8.514;2022-08-21T13:23:15;2.97;;;2.67;;
7527;SDS011;3805;49.006;8.514;2022-08-21T13:26:12;3.17;;;2.97;;
7527;SDS011;3805;49.006;8.514;2022-08-21T13:29:06;4.20;;;3.90;;
7527;SDS011;3805;49.006;8.514;2022-08-21T13:31:59;2.90;;;2.60;;
7527;SDS011;3805;49.006;8.514;2022-08-21T13:34:51;2.63;;;2.40;;
7527;SDS011;3805;49.006;8.514;2022-08-21T13:37:40;3.53;;;2.70;;
7527;SDS011;3805;49.006;8.514;2022-08-21T13:40:31;3.20;;;2.60;;
7527;SDS011;3805;49.006;8.514;2022-08-21T13:43:21;5.00;;;2.60;;
7527;SDS011;3805;49.006;8.514;2022-08-21T13:46:14;3.53;;;2.77;;
7527;SDS011;3805;49.006;8.514;2022-08-21T13:49:03;3.40;;;2.53;;
7527;SDS011;3805;49.006;8.514;2022-08-21T13:51:54;4.60;;;2.40;;
7527;SDS011;3805;49.006;8.514;2022-08-21T13:54:43;3.33;;;2.93;;
7527;SDS011;3805;49.006;8.514;2022-08-21T13:57:33;3.27;;;2.83;;
7527;SDS011;3805;49.006;8.514;2022-08-21T14:00:25;3.43;;;3.10;;
7527;SDS011;3805;49.006;8.514;2022-08-21T14:03:23;3.80;;;3.13;;
7527;SDS011;3805;49.006;8.514;2022-08-21T14:06:16;8.00;;;7.30;;
7527;SDS011;3805;49.006;8.514;2022-08-21T14:09:09;4.10;;;3.37;;
7527;SDS011;3805;49.006;8.514;2022-08-21T14:12:02;7.30;;;4.43;;
7527;SDS011;3805;49.006;8.514;2022-08-21T14:15:01;3.03;;;2.80;;
7527;SDS011;3805;49.006;8.514;2022-08-21T14:17:51;3.30;;;3.00;;
7527;SDS011;3805;49.006;8.514;2022-08-21T14:20:40;2.93;;;2.73;;
7527;SDS011;3805;49.006;8.514;2022-08-21T14:23:29;2.63;;;2.40;;
7527;SDS011;3805;49.006;8.514;2022-08-21T14:26:19;3.40;;;2.87;;
7527;SDS011;3805;49.006;8.514;2022-08-21T14:29:08;5.50;;;3.30;;
7527;SDS011;3805;49.006;8.514;2022-08-21T14:31:58;3.10;;;2.50;;
7527;SDS011;3805;49.006;8.514;2022-08-21T14:34:51;4.90;;;3.27;;
7527;SDS011;3805;49.006;8.514;2022-08-21T14:37:41;4.20;;;3.07;;
7527;SDS011;3805;49.006;8.514;2022-08-21T14:40:30;3.50;;;2.60;;
7527;SDS011;3805;49.006;8.514;2022-08-21T14:43:22;2.97;;;2.67;;
7527;SDS011;3805;49.006;8.514;2022-08-21T14:46:12;4.77;;;2.40;;
7527;SDS011;3805;49.006;8.514;2022-08-21T14:49:00;4.70;;;3.30;;
7527;SDS011;3805;49.006;8.514;2022-08-21T14:51:49;5.90;;;2.90;;
7527;SDS011;3805;49.006;8.514;2022-08-21T14:54:43;3.87;;;3.43;;
7527;SDS011;3805;49.006;8.514;2022-08-21T14:57:32;3.00;;;2.70;;
7527;SDS011;3805;49.006;8.514;2022-08-21T15:00:24;3.70;;;3.37;;
7527;SDS011;3805;49.006;8.514;2022-08-21T15:03:22;5.43;;;3.20;;
7527;SDS011;3805;49.006;8.514;2022-08-21T15:06:11;5.93;;;2.93;;
7527;SDS011;3805;49.006;8.514;2022-08-21T15:08:59;3.90;;;2.50;;
7527;SDS011;3805;49.006;8.514;2022-08-21T15:11:51;3.10;;;2.70;;
7527;SDS011;3805;49.006;8.514;2022-08-21T15:14:40;3.80;;;3.10;;
7527;SDS011;3805;49.006;8.514;2022-08-21T15:17:30;2.50;;;2.30;;
7527;SDS011;3805;49.006;8.514;2022-08-21T15:20:19;4.20;;;2.80;;
7527;SDS011;3805;49.006;8.514;2022-08-21T15:23:08;2.97;;;2.77;;
7527;SDS011;3805;49.006;8.514;2022-08-21T15:26:01;3.23;;;2.93;;
7527;SDS011;3805;49.006;8.514;2022-08-21T15:28:49;5.10;;;3.93;;
7527;SDS011;3805;49.006;8.514;2022-08-21T15:31:40;9.03;;;2.90;;
7527;SDS011;3805;49.006;8.514;2022-08-21T15:34:39;3.43;;;3.23;;
7527;SDS011;3805;49.006;8.514;2022-08-21T15:37:28;3.97;;;3.10;;
7527;SDS011;3805;49.006;8.514;2022-08-21T15:40:17;4.10;;;2.90;;
7527;SDS011;3805;49.006;8.514;2022-08-21T15:43:18;4.00;;;2.70;;
7527;SDS011;3805;49.006;8.514;2022-08-21T15:46:17;3.40;;;3.10;;
7527;SDS011;3805;49.006;8.514;2022-08-21T15:49:07;3.93;;;3.30;;
7527;SDS011;3805;49.006;8.514;2022-08-21T15:51:57;3.90;;;2.80;;
7527;SDS011;3805;49.006;8.514;2022-08-21T15:54:46;6.63;;;3.30;;
7527;SDS011;3805;49.006;8.514;2022-08-21T15:57:36;4.17;;;3.77;;
7527;SDS011;3805;49.006;8.514;2022-08-21T16:00:25;8.60;;;3.10;;
7527;SDS011;3805;49.006;8.514;2022-08-21T16:03:15;3.30;;;3.00;;
7527;SDS011;3805;49.006;8.514;2022-08-21T16:06:06;6.20;;;4.10;;
7527;SDS011;3805;49.006;8.514;2022-08-21T16:08:57;3.23;;;2.93;;
7527;SDS011;3805;49.006;8.514;2022-08-21T16:11:45;4.43;;;3.23;;
7527;SDS011;3805;49.006;8.514;2022-08-21T16:14:34;2.90;;;2.30;;
7527;SDS011;3805;49.006;8.514;2022-08-21T16:17:25;5.57;;;2.63;;
7527;SDS011;3805;49.006;8.514;2022-08-21T16:20:17;3.00;;;2.77;;
7527;SDS011;3805;49.006;8.514;2022-08-21T16:23:07;3.33;;;3.00;;
7527;SDS011;3805;49.006;8.514;2022-08-21T16:25:58;3.40;;;2.90;;
7527;SDS011;3805;49.006;8.514;2022-08-21T16:28:47;2.87;;;2.57;;
7527;SDS011;3805;49.006;8.514;2022-08-21T16:31:38;2.87;;;2.50;;
7527;SDS011;3805;49.006;8.514;2022-08-21T16:34:27;3.50;;;2.67;;
7527;SDS011;3805;49.006;8.514;2022-08-21T16:37:16;4.40;;;4.00;;
7527;SDS011;3805;49.006;8.514;2022-08-21T16:40:10;3.60;;;3.30;;
7527;SDS011;3805;49.006;8.514;2022-08-21T16:43:01;3.63;;;3.07;;
7527;SDS011;3805;49.006;8.514;2022-08-21T16:45:50;3.60;;;2.80;;
7527;SDS011;3805;49.006;8.514;2022-08-21T16:48:39;3.87;;;3.50;;
7527;SDS011;3805;49.006;8.514;2022-08-21T16:51:30;3.97;;;3.57;;
7527;SDS011;3805;49.006;8.514;2022-08-21T16:54:20;4.13;;;2.80;;
7527;SDS011;3805;49.006;8.514;2022-08-21T16:57:08;3.10;;;2.80;;
7527;SDS011;3805;49.006;8.514;2022-08-21T16:59:59;3.77;;;3.47;;
7527;SDS011;3805;49.006;8.514;2022-08-21T17:02:49;3.37;;;3.07;;
7527;SDS011;3805;49.006;8.514;2022-08-21T17:05:39;3.63;;;3.27;;
7527;SDS011;3805;49.006;8.514;2022-08-21T17:08:28;3.30;;;3.00;;
7527;SDS011;3805;49.006;8.514;2022-08-21T17:11:20;3.73;;;3.33;;
7527;SDS011;3805;49.006;8.514;2022-08-21T17:14:24;4.07;;;2.97;;
7527;SDS011;3805;49.006;8.514;2022-08-21T17:17:14;2.93;;;2.73;;
7527;SDS011;3805;49.006;8.514;2022-08-21T17:20:03;2.60;;;2.40;;
7527;SDS011;3805;49.006;8.514;2022-08-21T17:22:53;4.70;;;2.97;;
7527;SDS011;3805;49.006;8.514;2022-08-21T17:25:42;3.50;;;2.73;;
7527;SDS011;3805;49.006;8.514;2022-08-21T17:28:33;3.53;;;2.77;;
7527;SDS011;3805;49.006;8.514;2022-08-21T17:31:23;4.87;;;2.87;;
7527;SDS011;3805;49.006;8.514;2022-08-21T17:34:14;3.40;;;2.57;;
7527;SDS011;3805;49.006;8.514;2022-08-21T17:37:03;2.93;;;2.63;;
7527;SDS011;3805;49.006;8.514;2022-08-21T17:39:52;3.53;;;2.87;;
7527;SDS011;3805;49.006;8.514;2022-08-21T17:42:41;6.13;;;3.10;;
7527;SDS011;3805;49.006;8.514;2022-08-21T17:45:30;3.97;;;3.67;;
7527;SDS011;3805;49.006;8.514;2022-08-21T17:48:23;3.70;;;3.33;;
7527;SDS011;3805;49.006;8.514;2022-08-21T17:51:14;4.73;;;3.50;;